Time;durP1;ratioP1;P1;durP2;ratioP2;P2;SDS_P1;SDS_P2;PMS_P1;PMS_P2;Temp;Humidity;BMP_temperature;BMP_pressure;BME280_temperature;BME280_humidity;BME280_pressure;Samples;Min_cycle;Max_cycle;Signal;HPM_P1;HPM_P2
2023/12/23 00:02:07;;;;;;;5.57;1.10;;;5.90;99.90;;;;;;4997699;28;20029;-62
2023/12/23 00:04:32;;;;;;;7.82;1.40;;;5.90;99.90;;;;;;5007824;28;20026;-62
2023/12/23 00:06:58;;;;;;;11.48;1.70;;;5.80;99.90;;;;;;4987985;28;20080;-62
2023/12/23 00:09:23;;;;;;;23.05;4.57;;;5.80;99.90;;;;;;5000131;28;20442;-62
2023/12/23 00:11:50;;;;;;;9.07;1.45;;;5.80;99.90;;;;;;4992631;28;20093;-62
2023/12/23 00:14:16;;;;;;;7.18;1.75;;;5.70;99.90;;;;;;5004924;28;20030;-62
2023/12/23 00:16:44;;;;;;;7.90;1.15;;;5.70;99.90;;;;;;4988363;28;20097;-62
2023/12/23 00:19:10;;;;;;;7.93;1.40;;;5.70;99.90;;;;;;4996680;28;20129;-62
2023/12/23 00:21:35;;;;;;;4.53;1.60;;;5.80;99.90;;;;;;4999877;28;20109;-62
2023/12/23 00:24:01;;;;;;;6.88;1.55;;;5.80;99.90;;;;;;5000421;28;20034;-62
2023/12/23 00:26:27;;;;;;;10.32;1.98;;;5.80;99.90;;;;;;4997809;28;20486;-62
2023/12/23 00:28:52;;;;;;;6.60;1.05;;;5.80;99.90;;;;;;4999450;28;20022;-62
2023/12/23 00:31:18;;;;;;;8.88;1.77;;;5.90;99.90;;;;;;5000122;28;20067;-62
2023/12/23 00:33:44;;;;;;;10.82;1.30;;;5.90;99.90;;;;;;4999274;28;20554;-62
2023/12/23 00:36:10;;;;;;;8.25;2.13;;;5.90;99.90;;;;;;5005326;28;20034;-62
2023/12/23 00:38:36;;;;;;;11.95;1.50;;;5.90;99.90;;;;;;5003267;28;20026;-62
2023/12/23 00:41:02;;;;;;;6.60;1.20;;;6.00;99.90;;;;;;5001075;28;20033;-62
2023/12/23 00:43:28;;;;;;;10.65;1.92;;;6.00;99.90;;;;;;5000626;28;20595;-62
2023/12/23 00:45:55;;;;;;;7.45;1.48;;;6.00;99.90;;;;;;4999651;28;20026;-62
2023/12/23 00:48:20;;;;;;;7.65;1.65;;;6.10;99.90;;;;;;5005548;28;20029;-62
2023/12/23 00:50:46;;;;;;;10.60;1.77;;;6.10;99.90;;;;;;4999164;28;20386;-62
2023/12/23 00:53:11;;;;;;;6.65;1.42;;;6.10;99.90;;;;;;5001479;28;20030;-62
2023/12/23 00:55:38;;;;;;;10.15;1.65;;;6.10;99.90;;;;;;4999673;28;20038;-62
2023/12/23 00:58:03;;;;;;;7.28;1.48;;;6.00;99.90;;;;;;4999781;28;20065;-62
2023/12/23 01:00:29;;;;;;;8.23;1.42;;;6.00;99.90;;;;;;5002944;28;20072;-62
2023/12/23 01:02:55;;;;;;;5.45;1.27;;;6.10;99.90;;;;;;4998686;28;20477;-62
2023/12/23 01:05:20;;;;;;;4.53;1.38;;;6.10;99.90;;;;;;5001681;28;20041;-62
2023/12/23 01:07:46;;;;;;;6.05;1.60;;;6.10;99.90;;;;;;4998567;28;20038;-61
2023/12/23 01:10:12;;;;;;;6.32;1.60;;;6.10;99.90;;;;;;4998093;28;20109;-62
2023/12/23 01:12:37;;;;;;;9.45;1.60;;;6.10;99.90;;;;;;5001295;28;20030;-62
2023/12/23 01:15:03;;;;;;;10.27;1.63;;;6.10;99.90;;;;;;5000627;28;20427;-62
2023/12/23 01:17:29;;;;;;;8.40;1.80;;;6.10;99.90;;;;;;4999310;28;20025;-61
2023/12/23 01:19:55;;;;;;;4.38;1.38;;;6.10;99.90;;;;;;4999510;28;20395;-61
2023/12/23 01:22:20;;;;;;;6.68;1.40;;;6.10;99.90;;;;;;5000266;28;20100;-61
2023/12/23 01:24:49;;;;;;;9.50;1.25;;;6.10;99.90;;;;;;4998553;28;20034;-61
2023/12/23 01:27:14;;;;;;;8.45;1.42;;;6.20;99.90;;;;;;4999283;28;20018;-61
2023/12/23 01:29:40;;;;;;;7.47;1.50;;;6.10;99.90;;;;;;4996726;28;20037;-62
2023/12/23 01:32:06;;;;;;;7.45;1.42;;;6.10;99.90;;;;;;5000756;28;20033;-61
2023/12/23 01:34:31;;;;;;;5.15;1.13;;;6.10;99.90;;;;;;4998878;28;20026;-62
2023/12/23 01:36:57;;;;;;;4.68;1.23;;;6.20;99.90;;;;;;5004253;28;20101;-61
2023/12/23 01:39:23;;;;;;;8.70;1.08;;;6.20;99.90;;;;;;4999684;28;20030;-62
2023/12/23 01:41:49;;;;;;;7.90;2.03;;;6.20;99.90;;;;;;4998835;28;20019;-62
2023/12/23 01:44:15;;;;;;;6.10;1.40;;;6.20;99.90;;;;;;5000633;28;20126;-62
2023/12/23 01:46:40;;;;;;;8.60;1.50;;;6.20;99.90;;;;;;4997706;28;20018;-62
2023/12/23 01:49:07;;;;;;;5.00;1.40;;;6.30;99.90;;;;;;5000777;28;20544;-62
2023/12/23 01:51:33;;;;;;;7.13;1.00;;;6.20;99.90;;;;;;4998476;28;20022;-62
2023/12/23 01:54:04;;;;;;;7.95;1.63;;;6.30;99.90;;;;;;5000278;28;20348;-63
2023/12/23 01:56:29;;;;;;;;;;;6.30;99.90;;;;;;5001014;28;20113;-62
2023/12/23 01:58:55;;;;;;;5.07;1.35;;;6.30;99.90;;;;;;5001438;28;20001;-62
2023/12/23 02:01:21;;;;;;;7.18;1.33;;;6.30;99.90;;;;;;4998772;28;20026;-62
2023/12/23 02:03:46;;;;;;;7.72;1.25;;;6.30;99.90;;;;;;5000454;28;20094;-62
2023/12/23 02:06:12;;;;;;;2.25;0.88;;;6.30;99.90;;;;;;4997183;28;20027;-62
2023/12/23 02:08:37;;;;;;;5.32;1.00;;;6.40;99.90;;;;;;5001132;28;20033;-62
2023/12/23 02:11:07;;;;;;;6.15;1.30;;;6.30;99.90;;;;;;4997921;28;20482;-62
2023/12/23 02:13:40;;;;;;;18.40;2.35;;;6.30;99.90;;;;;;5000160;28;20531;-62
2023/12/23 02:16:07;;;;;;;5.35;1.15;;;6.30;99.90;;;;;;4997654;28;20693;-62
2023/12/23 02:18:32;;;;;;;9.10;1.58;;;6.30;99.90;;;;;;4999614;28;20120;-62
2023/12/23 02:20:58;;;;;;;5.72;1.40;;;6.30;99.90;;;;;;4981053;28;20476;-62
2023/12/23 02:23:23;;;;;;;8.82;1.58;;;6.30;99.90;;;;;;4998631;28;20023;-62
2023/12/23 02:25:53;;;;;;;3.92;0.93;;;6.20;99.90;;;;;;5000216;28;20022;-62
2023/12/23 02:28:20;;;;;;;4.57;0.98;;;6.20;99.90;;;;;;4995985;28;20022;-62
2023/12/23 02:30:47;;;;;;;3.60;1.13;;;6.20;99.90;;;;;;4998285;28;20622;-62
2023/12/23 02:33:13;;;;;;;4.72;1.23;;;6.20;99.90;;;;;;4997035;28;20045;-62
2023/12/23 02:35:39;;;;;;;7.53;1.40;;;6.20;99.90;;;;;;5000952;28;20034;-62
2023/12/23 02:38:04;;;;;;;5.82;1.42;;;6.30;99.90;;;;;;5001058;28;20061;-62
2023/12/23 02:40:30;;;;;;;6.65;1.38;;;6.20;99.90;;;;;;4997394;28;20482;-62
2023/12/23 02:42:56;;;;;;;4.88;1.20;;;6.20;99.90;;;;;;4999748;28;20023;-62
2023/12/23 02:45:23;;;;;;;5.22;1.33;;;6.20;99.90;;;;;;4998211;28;20113;-62
2023/12/23 02:47:48;;;;;;;5.93;1.50;;;6.20;99.90;;;;;;4998627;28;20560;-62
2023/12/23 02:50:14;;;;;;;4.40;1.08;;;6.20;99.90;;;;;;4999272;28;20046;-59
2023/12/23 02:52:42;;;;;;;6.57;1.25;;;6.20;99.90;;;;;;4998008;28;20106;-62
2023/12/23 02:55:08;;;;;;;8.70;1.50;;;6.20;99.90;;;;;;5000869;28;20064;-62
2023/12/23 02:57:33;;;;;;;7.22;1.50;;;6.20;99.90;;;;;;4982696;28;20506;-60
2023/12/23 02:59:59;;;;;;;7.72;1.70;;;6.10;99.90;;;;;;4998476;28;20021;-62
2023/12/23 03:02:24;;;;;;;7.72;2.05;;;6.10;99.90;;;;;;4999985;28;20550;-61
2023/12/23 03:04:50;;;;;;;8.18;2.35;;;6.10;99.90;;;;;;4980867;28;20076;-61
2023/12/23 03:07:15;;;;;;;9.85;2.78;;;6.10;99.90;;;;;;4997204;28;20501;-61
2023/12/23 03:09:43;;;;;;;16.20;3.30;;;6.10;99.90;;;;;;4999864;28;20096;-62
2023/12/23 03:12:09;;;;;;;12.05;2.75;;;6.00;99.90;;;;;;4997576;28;20367;-61
2023/12/23 03:14:35;;;;;;;9.13;3.20;;;6.00;99.90;;;;;;4999814;28;20025;-59
2023/12/23 03:17:05;;;;;;;11.70;3.40;;;5.90;99.90;;;;;;4997024;28;20060;-61
2023/12/23 03:19:31;;;;;;;6.47;2.42;;;5.90;99.90;;;;;;4996298;28;20099;-59
2023/12/23 03:21:57;;;;;;;13.85;3.78;;;5.90;99.90;;;;;;4999811;28;20026;-62
2023/12/23 03:24:22;;;;;;;10.25;3.40;;;5.80;99.90;;;;;;4999052;28;20740;-62
2023/12/23 03:26:48;;;;;;;14.35;2.67;;;5.80;99.90;;;;;;5000265;28;20519;-62
2023/12/23 03:29:13;;;;;;;12.40;3.10;;;5.80;99.90;;;;;;4999061;28;20023;-62
2023/12/23 03:31:39;;;;;;;13.95;4.05;;;5.90;99.90;;;;;;5002771;28;20083;-62
2023/12/23 03:34:04;;;;;;;12.45;3.35;;;5.90;99.90;;;;;;5000188;28;20152;-62
2023/12/23 03:36:30;;;;;;;12.95;3.00;;;5.80;99.90;;;;;;5004010;28;20037;-62
2023/12/23 03:38:55;;;;;;;8.70;3.10;;;5.80;99.90;;;;;;5003609;28;20033;-62
2023/12/23 03:41:22;;;;;;;10.82;2.90;;;5.80;99.90;;;;;;5000653;28;20038;-62
2023/12/23 03:43:47;;;;;;;11.88;3.20;;;5.90;99.90;;;;;;5001989;28;20065;-62
2023/12/23 03:46:13;;;;;;;11.02;4.00;;;5.80;99.90;;;;;;4984125;28;20107;-60
2023/12/23 03:48:38;;;;;;;10.55;2.28;;;5.80;99.90;;;;;;5000772;28;20029;-60
2023/12/23 03:51:04;;;;;;;12.18;3.80;;;5.90;99.90;;;;;;5003186;28;20033;-62
2023/12/23 03:53:30;;;;;;;10.73;3.40;;;5.90;99.90;;;;;;4982537;28;20037;-62
2023/12/23 03:55:55;;;;;;;17.27;3.85;;;5.90;99.90;;;;;;5003234;28;20026;-62
2023/12/23 03:58:21;;;;;;;16.95;3.88;;;5.90;99.90;;;;;;5002858;28;20040;-60
2023/12/23 04:00:47;;;;;;;12.65;3.35;;;5.90;99.90;;;;;;4999915;28;20113;-61
2023/12/23 04:03:15;;;;;;;17.73;4.75;;;5.90;99.90;;;;;;4992075;28;20104;-60
2023/12/23 04:05:40;;;;;;;13.48;5.07;;;5.90;99.90;;;;;;5000947;28;20022;-61
2023/12/23 04:08:06;;;;;;;11.85;3.88;;;6.00;99.90;;;;;;4985091;28;20022;-60
2023/12/23 04:10:32;;;;;;;17.13;5.82;;;6.00;99.90;;;;;;4981804;28;20058;-60
2023/12/23 04:12:57;;;;;;;14.77;4.75;;;6.00;99.90;;;;;;5003262;28;20088;-61
2023/12/23 04:15:25;;;;;;;14.60;6.07;;;6.10;99.90;;;;;;4999253;28;20026;-61
2023/12/23 04:17:51;;;;;;;19.27;6.60;;;6.10;99.90;;;;;;5002461;28;20029;-61
2023/12/23 04:20:17;;;;;;;14.60;6.22;;;6.10;99.90;;;;;;4999835;28;20046;-61
2023/12/23 04:22:47;;;;;;;19.77;8.52;;;6.30;99.90;;;;;;5000977;28;20019;-61
2023/12/23 04:25:13;;;;;;;10.35;4.78;;;6.40;99.90;;;;;;5001125;28;20065;-61
2023/12/23 04:27:39;;;;;;;13.20;6.20;;;6.60;99.90;;;;;;4998978;28;20017;-61
2023/12/23 04:30:05;;;;;;;17.85;6.03;;;6.60;99.90;;;;;;4998145;28;20336;-61
2023/12/23 04:32:31;;;;;;;22.20;8.63;;;6.70;99.90;;;;;;5001985;28;20113;-61
2023/12/23 04:34:56;;;;;;;17.98;6.55;;;6.80;99.90;;;;;;5002624;28;20100;-61
2023/12/23 04:37:22;;;;;;;21.75;9.80;;;6.90;99.90;;;;;;4989878;28;20030;-61
2023/12/23 04:39:47;;;;;;;20.73;9.00;;;7.00;99.90;;;;;;5001592;28;20034;-61
2023/12/23 04:42:13;;;;;;;20.40;8.18;;;7.00;99.90;;;;;;4983316;28;20085;-61
2023/12/23 04:44:39;;;;;;;19.08;7.78;;;7.10;99.90;;;;;;4999792;28;20556;-61
2023/12/23 04:47:05;;;;;;;21.80;8.60;;;7.10;99.90;;;;;;5001658;28;20073;-61
2023/12/23 04:49:30;;;;;;;16.27;7.35;;;7.20;99.90;;;;;;4998699;28;20077;-61
2023/12/23 04:51:56;;;;;;;19.05;6.30;;;7.20;99.90;;;;;;4984941;28;20500;-61
2023/12/23 04:54:21;;;;;;;20.23;7.40;;;7.20;99.90;;;;;;4998597;28;20033;-61
2023/12/23 04:56:47;;;;;;;18.52;8.55;;;7.30;99.90;;;;;;5003293;28;20037;-61
2023/12/23 04:59:15;;;;;;;19.73;7.70;;;7.30;99.90;;;;;;4998116;28;20052;-61
2023/12/23 05:01:40;;;;;;;18.60;10.27;;;7.30;99.90;;;;;;4999931;28;20033;-62
2023/12/23 05:04:06;;;;;;;16.63;5.90;;;7.30;99.90;;;;;;5000218;28;20031;-62
2023/12/23 05:06:31;;;;;;;21.92;10.65;;;7.30;99.90;;;;;;5000618;28;20087;-62
2023/12/23 05:08:57;;;;;;;15.05;6.50;;;7.30;99.90;;;;;;4998796;28;20027;-61
2023/12/23 05:11:26;;;;;;;21.63;10.48;;;7.40;99.90;;;;;;5001449;28;20069;-61
2023/12/23 05:13:52;;;;;;;19.92;7.15;;;7.40;99.90;;;;;;4998417;28;20034;-61
2023/12/23 05:16:17;;;;;;;19.35;7.72;;;7.40;99.90;;;;;;5000844;28;20045;-61
2023/12/23 05:18:43;;;;;;;15.75;6.43;;;7.50;99.90;;;;;;4999494;28;20046;-61
2023/12/23 05:21:08;;;;;;;23.45;9.25;;;7.50;99.90;;;;;;5000314;28;20033;-61
2023/12/23 05:23:34;;;;;;;18.52;6.75;;;7.60;99.90;;;;;;4999975;28;20072;-61
2023/12/23 05:25:59;;;;;;;24.40;10.90;;;7.60;99.90;;;;;;4999690;28;20026;-61
2023/12/23 05:28:25;;;;;;;15.18;6.40;;;7.60;99.90;;;;;;4997624;28;20482;-61
2023/12/23 05:30:51;;;;;;;20.40;9.95;;;7.60;99.90;;;;;;4992837;28;20034;-61
2023/12/23 05:33:18;;;;;;;15.90;7.07;;;7.60;99.90;;;;;;5001170;28;20026;-61
2023/12/23 05:35:44;;;;;;;17.42;9.32;;;7.60;99.90;;;;;;5002091;28;20022;-61
2023/12/23 05:38:10;;;;;;;36.40;8.05;;;7.60;99.90;;;;;;5002051;28;20021;-61
2023/12/23 05:40:37;;;;;;;21.13;11.05;;;7.60;99.90;;;;;;4999068;28;20033;-61
2023/12/23 05:43:03;;;;;;;22.73;9.98;;;7.70;99.90;;;;;;5000316;28;20021;-61
2023/12/23 05:45:28;;;;;;;17.80;7.18;;;7.60;99.90;;;;;;4997936;28;20286;-61
2023/12/23 05:47:56;;;;;;;14.35;7.68;;;7.60;99.90;;;;;;5000747;28;20492;-61
2023/12/23 05:50:22;;;;;;;20.33;10.43;;;7.50;99.90;;;;;;4997240;28;20437;-62
2023/12/23 05:52:48;;;;;;;28.40;13.77;;;7.60;99.90;;;;;;5001294;28;20041;-62
2023/12/23 05:55:13;;;;;;;21.20;9.27;;;7.50;99.90;;;;;;4998321;28;20030;-62
2023/12/23 05:57:39;;;;;;;20.77;9.00;;;7.50;99.90;;;;;;5000715;28;20062;-62
2023/12/23 06:00:05;;;;;;;24.00;10.98;;;7.50;99.90;;;;;;4979711;28;20026;-62
2023/12/23 06:02:31;;;;;;;28.20;14.35;;;7.50;99.90;;;;;;4984884;28;20030;-62
2023/12/23 06:04:59;;;;;;;26.58;11.02;;;7.50;99.90;;;;;;4998864;28;20463;-62
2023/12/23 06:07:25;;;;;;;21.58;9.48;;;7.50;99.90;;;;;;5005315;28;20057;-61
2023/12/23 06:09:50;;;;;;;24.52;13.10;;;7.50;99.90;;;;;;5008360;28;20034;-61
2023/12/23 06:12:16;;;;;;;24.75;9.73;;;7.50;99.90;;;;;;5001033;28;20492;-61
2023/12/23 06:14:42;;;;;;;24.10;10.98;;;7.50;99.90;;;;;;4988748;28;20117;-61
2023/12/23 06:17:08;;;;;;;18.13;7.78;;;7.50;99.90;;;;;;5004556;28;20030;-61
2023/12/23 06:19:34;;;;;;;22.70;11.45;;;7.50;99.90;;;;;;4998070;28;20046;-61
2023/12/23 06:22:02;;;;;;;27.45;14.15;;;7.50;99.90;;;;;;4994261;28;20548;-61
2023/12/23 06:24:27;;;;;;;20.63;9.77;;;7.50;99.90;;;;;;5001127;28;20041;-62
2023/12/23 06:26:56;;;;;;;30.13;13.10;;;7.50;99.90;;;;;;4997383;28;20030;-61
2023/12/23 06:29:21;;;;;;;24.35;8.52;;;7.50;99.90;;;;;;4996991;28;20100;-61
2023/12/23 06:31:47;;;;;;;20.10;8.05;;;7.50;99.90;;;;;;4997783;28;20105;-62
2023/12/23 06:34:12;;;;;;;30.33;13.23;;;7.50;99.90;;;;;;4996556;28;20410;-61
2023/12/23 06:36:38;;;;;;;24.35;9.10;;;7.50;99.90;;;;;;4997553;28;20029;-61
2023/12/23 06:39:03;;;;;;;25.80;8.45;;;7.60;99.90;;;;;;4995855;28;20033;-61
2023/12/23 06:41:30;;;;;;;21.33;9.93;;;7.60;99.90;;;;;;4995395;28;20026;-61
2023/12/23 06:43:55;;;;;;;21.13;9.82;;;7.60;99.90;;;;;;4995255;28;20026;-61
2023/12/23 06:46:21;;;;;;;23.77;9.77;;;7.50;99.90;;;;;;4997118;28;20030;-61
2023/12/23 06:48:47;;;;;;;19.45;8.52;;;7.60;99.90;;;;;;5001725;28;20024;-61
2023/12/23 06:51:12;;;;;;;19.95;9.10;;;7.60;99.90;;;;;;4980167;28;20059;-61
2023/12/23 06:53:38;;;;;;;19.55;7.97;;;7.60;99.90;;;;;;4999738;28;20033;-61
2023/12/23 06:56:05;;;;;;;22.50;8.40;;;7.60;99.90;;;;;;4998522;28;20037;-61
2023/12/23 06:58:30;;;;;;;26.10;12.80;;;7.60;99.90;;;;;;4981836;28;20034;-61
2023/12/23 07:00:58;;;;;;;24.23;12.02;;;7.60;99.90;;;;;;4998933;28;20033;-61
2023/12/23 07:03:24;;;;;;;25.40;10.50;;;7.60;99.90;;;;;;5001043;28;20022;-61
2023/12/23 07:05:49;;;;;;;19.92;8.43;;;7.60;99.90;;;;;;5001273;28;20549;-61
2023/12/23 07:08:15;;;;;;;19.73;9.10;;;7.60;99.90;;;;;;5004338;28;20058;-61
2023/12/23 07:10:41;;;;;;;27.38;9.30;;;7.60;99.90;;;;;;4982450;28;20171;-61
2023/12/23 07:13:06;;;;;;;20.85;9.18;;;7.60;99.90;;;;;;4997483;28;20026;-61
2023/12/23 07:15:32;;;;;;;16.52;8.18;;;7.60;99.90;;;;;;4993799;28;20042;-61
2023/12/23 07:17:58;;;;;;;21.52;9.57;;;7.60;99.90;;;;;;5001640;28;20515;-61
2023/12/23 07:20:23;;;;;;;19.33;9.80;;;7.60;99.90;;;;;;5002703;28;20084;-61
2023/12/23 07:22:49;;;;;;;17.23;8.43;;;7.60;99.90;;;;;;5002848;28;20026;-61
2023/12/23 07:25:14;;;;;;;16.90;7.43;;;7.60;99.90;;;;;;4985462;28;20036;-61
2023/12/23 07:27:40;;;;;;;26.42;9.85;;;7.60;99.90;;;;;;5004713;28;20018;-61
2023/12/23 07:30:09;;;;;;;23.92;8.57;;;7.60;99.90;;;;;;5003866;28;20117;-61
2023/12/23 07:32:35;;;;;;;28.75;11.32;;;7.60;99.90;;;;;;4998792;28;20033;-61
2023/12/23 07:35:00;;;;;;;21.02;10.25;;;7.60;99.90;;;;;;5009145;28;20105;-61
2023/12/23 07:37:26;;;;;;;21.25;9.45;;;7.60;99.90;;;;;;4998423;28;20014;-61
2023/12/23 07:39:52;;;;;;;16.58;6.85;;;7.60;99.90;;;;;;4999525;28;20034;-61
2023/12/23 07:42:17;;;;;;;16.70;8.38;;;7.60;99.90;;;;;;4995443;28;20038;-62
2023/12/23 07:44:43;;;;;;;19.80;9.55;;;7.60;99.90;;;;;;4986115;28;20504;-62
2023/12/23 07:47:12;;;;;;;23.40;8.70;;;7.60;99.90;;;;;;4999960;28;20026;-62
2023/12/23 07:49:38;;;;;;;17.93;9.97;;;7.60;99.90;;;;;;4984985;28;20029;-61
2023/12/23 07:52:04;;;;;;;19.33;9.43;;;7.60;99.90;;;;;;5000812;28;20319;-62
2023/12/23 07:54:29;;;;;;;20.85;6.82;;;7.60;99.90;;;;;;5001604;28;20037;-62
2023/12/23 07:56:55;;;;;;;15.48;5.70;;;7.60;99.90;;;;;;5006611;28;20026;-61
2023/12/23 07:59:24;;;;;;;16.35;7.13;;;7.70;99.90;;;;;;4995869;28;20034;-62
2023/12/23 08:01:49;;;;;;;17.23;7.97;;;7.70;99.90;;;;;;5005214;28;20056;-62
2023/12/23 08:04:15;;;;;;;19.15;9.27;;;7.70;99.90;;;;;;5003403;28;20105;-62
2023/12/23 08:06:41;;;;;;;16.38;6.05;;;7.70;99.90;;;;;;5005129;28;20073;-62
2023/12/23 08:09:08;;;;;;;22.70;10.35;;;7.70;99.90;;;;;;5000476;28;20050;-60
2023/12/23 08:11:36;;;;;;;13.05;4.70;;;7.70;99.90;;;;;;4983381;28;20520;-62
2023/12/23 08:14:03;;;;;;;14.65;7.82;;;7.70;99.90;;;;;;5003838;28;20478;-62
2023/12/23 08:16:28;;;;;;;16.85;6.88;;;7.70;99.90;;;;;;5003253;28;20325;-62
2023/12/23 08:18:54;;;;;;;13.02;5.47;;;7.80;99.90;;;;;;5000713;28;20129;-62
2023/12/23 08:21:21;;;;;;;17.33;6.18;;;7.80;99.90;;;;;;5000863;28;20400;-62
2023/12/23 08:23:46;;;;;;;19.00;7.68;;;7.80;99.90;;;;;;4996164;28;20033;-62
2023/12/23 08:26:12;;;;;;;22.02;7.85;;;7.80;99.90;;;;;;5003789;28;20025;-62
2023/12/23 08:28:37;;;;;;;13.30;5.60;;;7.80;99.90;;;;;;4998188;28;20536;-62
2023/12/23 08:31:03;;;;;;;20.45;5.95;;;7.80;99.90;;;;;;4997314;28;20149;-62
2023/12/23 08:33:29;;;;;;;24.67;7.80;;;7.80;99.90;;;;;;5001065;28;20066;-62
2023/12/23 08:36:00;;;;;;;14.77;5.93;;;7.80;99.90;;;;;;5004025;28;20038;-62
2023/12/23 08:38:25;;;;;;;19.10;9.52;;;7.80;99.90;;;;;;5002109;28;20026;-61
2023/12/23 08:40:51;;;;;;;12.90;5.63;;;7.80;99.90;;;;;;4998716;28;20106;-62
2023/12/23 08:43:16;;;;;;;13.55;5.15;;;7.90;99.90;;;;;;4997202;28;20022;-63
2023/12/23 08:45:42;;;;;;;19.40;8.65;;;7.90;99.90;;;;;;4980362;28;20097;-62
2023/12/23 08:48:11;;;;;;;16.55;5.72;;;7.90;99.90;;;;;;5002765;28;20022;-62
2023/12/23 08:50:36;;;;;;;18.08;7.20;;;7.90;99.90;;;;;;4992914;28;20034;-62
2023/12/23 08:53:04;;;;;;;16.63;6.95;;;7.90;99.90;;;;;;4997046;28;20091;-62
2023/12/23 08:55:30;;;;;;;15.93;6.32;;;7.90;99.90;;;;;;4996556;28;20124;-62
2023/12/23 08:57:55;;;;;;;20.73;8.20;;;7.90;99.90;;;;;;5002106;28;20182;-62
2023/12/23 09:00:21;;;;;;;16.65;6.13;;;7.90;99.90;;;;;;4996571;28;20038;-62
2023/12/23 09:02:46;;;;;;;14.35;4.93;;;7.90;99.90;;;;;;4995906;28;20061;-62
2023/12/23 09:05:12;;;;;;;19.48;8.05;;;7.90;99.90;;;;;;5006898;28;20022;-62
2023/12/23 09:07:38;;;;;;;18.92;8.43;;;7.90;99.90;;;;;;5006237;28;20362;-61
2023/12/23 09:10:05;;;;;;;19.10;5.07;;;7.90;99.90;;;;;;4998013;28;20014;-61
2023/12/23 09:12:33;;;;;;;21.95;6.63;;;7.90;99.90;;;;;;4997465;28;20081;-62
2023/12/23 09:14:58;;;;;;;15.50;6.70;;;7.90;99.90;;;;;;5001093;28;20026;-62
2023/12/23 09:17:24;;;;;;;12.63;5.55;;;8.00;99.90;;;;;;4996449;28;20018;-62
2023/12/23 09:19:50;;;;;;;22.27;6.30;;;7.90;99.90;;;;;;4999343;28;20050;-62
2023/12/23 09:22:15;;;;;;;24.45;7.03;;;7.90;99.90;;;;;;4984979;28;20041;-62
2023/12/23 09:24:45;;;;;;;12.18;4.03;;;7.90;99.90;;;;;;4998852;28;20654;-62
2023/12/23 09:27:10;;;;;;;16.05;5.82;;;8.00;99.90;;;;;;5000737;28;20026;-60
2023/12/23 09:29:36;;;;;;;18.20;6.50;;;8.00;99.90;;;;;;4996172;28;20462;-61
2023/12/23 09:32:02;;;;;;;15.70;5.10;;;8.00;99.90;;;;;;4997669;28;20389;-61
2023/12/23 09:34:28;;;;;;;24.48;7.00;;;8.00;99.90;;;;;;5001781;28;20057;-61
2023/12/23 09:36:54;;;;;;;20.35;7.25;;;8.00;99.90;;;;;;4998660;28;20489;-61
2023/12/23 09:39:19;;;;;;;17.75;7.15;;;8.00;99.90;;;;;;4995439;28;20037;-61
2023/12/23 09:41:45;;;;;;;14.20;5.57;;;8.10;99.90;;;;;;4993102;28;20038;-61
2023/12/23 09:44:10;;;;;;;12.57;4.53;;;8.00;99.90;;;;;;4992973;28;20415;-62
2023/12/23 09:46:39;;;;;;;14.70;6.00;;;8.00;99.90;;;;;;5002126;28;20461;-62
2023/12/23 09:49:05;;;;;;;18.30;6.20;;;8.00;99.90;;;;;;4998776;28;20574;-62
2023/12/23 09:51:31;;;;;;;22.77;7.28;;;8.10;99.90;;;;;;4995126;28;20036;-62
2023/12/23 09:54:01;;;;;;;16.98;5.53;;;8.00;99.90;;;;;;4998309;28;20023;-62
2023/12/23 09:56:30;;;;;;;12.40;4.70;;;8.10;99.90;;;;;;4983679;28;20022;-62
2023/12/23 09:58:56;;;;;;;13.60;5.07;;;8.10;99.90;;;;;;4993351;28;20041;-62
2023/12/23 10:01:25;;;;;;;16.75;5.78;;;8.10;99.90;;;;;;4998155;28;20032;-62
2023/12/23 10:03:51;;;;;;;15.00;4.70;;;8.20;99.90;;;;;;5001280;28;20030;-62
2023/12/23 10:06:18;;;;;;;14.48;3.78;;;8.10;99.90;;;;;;4999984;28;20034;-62
2023/12/23 10:08:44;;;;;;;13.27;3.42;;;8.10;99.90;;;;;;4998088;28;20032;-62
2023/12/23 10:11:13;;;;;;;13.63;4.65;;;8.10;99.90;;;;;;4999795;28;20030;-61
2023/12/23 10:13:39;;;;;;;15.68;4.10;;;8.10;99.90;;;;;;5000252;28;20465;-61
2023/12/23 10:16:06;;;;;;;12.70;2.85;;;8.10;99.90;;;;;;4998406;28;20381;-61
2023/12/23 10:18:31;;;;;;;9.32;2.50;;;8.10;99.90;;;;;;5000406;28;20057;-61
2023/12/23 10:20:57;;;;;;;14.02;4.05;;;8.10;99.90;;;;;;4992838;28;20386;-62
2023/12/23 10:23:23;;;;;;;12.45;3.47;;;8.20;99.90;;;;;;4999686;28;20030;-62
2023/12/23 10:25:51;;;;;;;13.82;4.28;;;8.10;99.90;;;;;;4997495;28;20030;-62
2023/12/23 10:28:19;;;;;;;12.52;3.42;;;8.20;99.90;;;;;;4997672;28;20026;-62
2023/12/23 10:30:51;;;;;;;13.07;4.18;;;8.20;99.90;;;;;;4995224;28;20022;-62
2023/12/23 10:33:17;;;;;;;16.13;3.05;;;8.20;99.90;;;;;;4995033;28;20019;-62
2023/12/23 10:35:48;;;;;;;13.77;4.50;;;8.20;99.90;;;;;;4988554;28;20041;-62
2023/12/23 10:38:16;;;;;;;9.55;2.95;;;8.20;99.90;;;;;;5001071;28;20521;-62
2023/12/23 10:40:48;;;;;;;17.58;4.13;;;8.20;99.90;;;;;;4985222;28;20110;-62
2023/12/23 10:43:17;;;;;;;13.68;4.38;;;8.20;99.90;;;;;;4999078;28;20109;-62
2023/12/23 10:45:47;;;;;;;13.57;4.50;;;8.20;99.90;;;;;;5004154;28;20026;-62
2023/12/23 10:48:15;;;;;;;13.15;3.38;;;8.20;99.90;;;;;;4997863;28;20489;-62
2023/12/23 10:50:42;;;;;;;19.85;5.85;;;8.20;99.90;;;;;;4995199;28;20036;-62
2023/12/23 10:53:12;;;;;;;13.93;4.38;;;8.10;99.90;;;;;;5000935;28;20537;-62
2023/12/23 10:55:39;;;;;;;12.65;4.57;;;8.10;99.90;;;;;;5001306;28;20468;-62
2023/12/23 10:58:09;;;;;;;11.27;3.92;;;8.10;99.90;;;;;;5002132;28;20129;-62
2023/12/23 11:00:36;;;;;;;16.38;5.20;;;8.10;99.90;;;;;;5001141;28;20026;-62
2023/12/23 11:03:03;;;;;;;13.93;5.95;;;8.10;99.90;;;;;;5008634;28;20101;-62
2023/12/23 11:05:33;;;;;;;17.95;6.38;;;8.10;99.90;;;;;;4986441;28;20088;-62
2023/12/23 11:08:02;;;;;;;14.75;5.00;;;8.10;99.90;;;;;;4998557;28;20694;-62
2023/12/23 11:10:30;;;;;;;15.25;5.50;;;8.20;99.90;;;;;;4999104;28;20038;-62
2023/12/23 11:12:56;;;;;;;12.75;5.15;;;8.20;99.90;;;;;;5003271;28;20473;-62
2023/12/23 11:15:23;;;;;;;20.65;10.35;;;8.10;99.90;;;;;;5007374;28;20022;-62
2023/12/23 11:17:49;;;;;;;14.88;5.80;;;8.10;99.90;;;;;;4999247;28;20121;-63
2023/12/23 11:20:44;;;;;;;13.63;6.35;;;8.10;99.90;;;;;;4999141;28;20789;-61
2023/12/23 11:23:29;;;;;;;13.30;4.35;;;8.10;99.90;;;;;;4996755;28;20122;-63
2023/12/23 11:25:57;;;;;;;15.77;8.05;;;8.00;99.90;;;;;;4985460;28;20617;-63
2023/12/23 11:28:27;;;;;;;20.95;7.80;;;8.10;99.90;;;;;;5007239;28;20026;-63
2023/12/23 11:30:57;;;;;;;27.60;9.10;;;8.00;99.90;;;;;;4984562;28;20030;-63
2023/12/23 11:33:24;;;;;;;;;;;8.10;99.90;;;;;;5002745;28;20033;-62
2023/12/23 11:35:56;;;;;;;21.88;8.30;;;8.10;99.90;;;;;;5001067;28;20215;-62
2023/12/23 11:38:26;;;;;;;15.63;5.20;;;8.10;99.90;;;;;;4996410;28;20385;-62
2023/12/23 11:40:52;;;;;;;16.33;6.20;;;8.10;99.90;;;;;;5002824;28;20118;-62
2023/12/23 11:43:18;;;;;;;13.52;5.57;;;8.10;99.90;;;;;;5005871;28;20109;-62
2023/12/23 11:45:48;;;;;;;9.63;3.92;;;8.10;99.90;;;;;;4997321;28;20030;-62
2023/12/23 11:48:20;;;;;;;16.13;6.35;;;8.00;99.90;;;;;;4997908;28;20022;-62
2023/12/23 11:50:46;;;;;;;16.45;6.78;;;8.10;99.90;;;;;;5006320;28;20098;-62
2023/12/23 11:53:14;;;;;;;15.20;5.57;;;8.10;99.90;;;;;;5007280;28;20154;-62
2023/12/23 11:55:42;;;;;;;11.65;4.40;;;8.10;99.90;;;;;;5001487;28;20049;-62
2023/12/23 11:58:09;;;;;;;15.30;5.15;;;8.10;99.90;;;;;;4984038;28;20121;-62
2023/12/23 12:00:37;;;;;;;14.10;5.50;;;8.10;99.90;;;;;;5001896;28;20065;-63
2023/12/23 12:03:05;;;;;;;18.45;7.75;;;8.10;99.90;;;;;;4996645;28;20098;-63
2023/12/23 12:05:30;;;;;;;12.52;4.25;;;8.10;99.90;;;;;;4988969;28;20222;-62
2023/12/23 12:07:56;;;;;;;16.80;6.68;;;8.10;99.90;;;;;;5003586;28;20034;-62
2023/12/23 12:10:24;;;;;;;11.45;3.33;;;8.10;99.90;;;;;;5000881;28;20140;-62
2023/12/23 12:12:50;;;;;;;15.00;6.75;;;8.20;99.90;;;;;;5002027;28;20030;-62
2023/12/23 12:15:15;;;;;;;12.85;4.65;;;8.00;99.90;;;;;;4989443;28;20030;-62
2023/12/23 12:17:41;;;;;;;17.85;7.35;;;8.10;99.90;;;;;;4982002;28;20084;-62
2023/12/23 12:20:07;;;;;;;14.05;5.35;;;8.10;99.90;;;;;;4990618;28;20048;-62
2023/12/23 12:22:33;;;;;;;14.10;4.28;;;8.10;99.90;;;;;;4998981;28;20077;-62
2023/12/23 12:24:59;;;;;;;11.13;4.03;;;8.00;99.90;;;;;;5003046;28;20457;-62
2023/12/23 12:27:24;;;;;;;12.55;4.45;;;8.10;99.90;;;;;;5003311;28;20032;-62
2023/12/23 12:29:52;;;;;;;13.00;5.10;;;8.10;99.90;;;;;;4996912;28;20038;-62
2023/12/23 12:32:18;;;;;;;20.20;5.88;;;8.00;99.90;;;;;;5002280;28;20034;-62
2023/12/23 12:34:44;;;;;;;21.63;6.85;;;8.00;99.90;;;;;;5002671;28;20030;-62
2023/12/23 12:37:10;;;;;;;20.58;8.57;;;8.00;99.90;;;;;;5001911;28;20117;-62
2023/12/23 12:39:36;;;;;;;15.50;5.20;;;8.00;99.90;;;;;;5000086;28;20112;-62
2023/12/23 12:42:02;;;;;;;18.38;6.05;;;8.00;99.90;;;;;;5004244;28;20034;-62
2023/12/23 12:44:27;;;;;;;19.40;5.95;;;8.00;99.90;;;;;;5001126;28;20072;-62